Elkton, Ohio
Current Conditions -  °F | °C
As of 8:47 PM on Friday 26 Dec 2014 (Local Time) from KBVI Reporting Station
Clear Clear  
Wind Chill: 39°   Ceiling: Unl
Heat Index: 39°   Visibility: 10mi
Dew Point: 32°   Wind: 3mph
Humidity: 75%   Direction: 180°S
Pressure: 30.2"   Gusts: NA
Location:  40.76°N, 80.7°W
Report Text: KBVI 270147Z 18003KT 10SM CLR 04/00 A3020 RMK LAST
Loading
Personal Weather Stations






























Interactive Weather Map New forecast layout! Learn more

10-Day Weather Forecast

Advertisements
Track Severe Weather on mobile